Time;durP1;ratioP1;P1;durP2;ratioP2;P2;SDS_P1;SDS_P2;PMS_P1;PMS_P2;Temp;Humidity;BMP_temperature;BMP_pressure;BME280_temperature;BME280_humidity;BME280_pressure;Samples;Min_cycle;Max_cycle;Signal;HPM_P1;HPM_P2
2022/11/15 00:00:22;;;;;;;;;;;;;;;11.49;69.28;101158.66;4991670;28;20377;-82
2022/11/15 00:03:26;;;;;;;;;;;;;;;11.54;69.47;101157.72;4991356;28;19922;-81
2022/11/15 00:06:29;;;;;;;;;;;;;;;11.28;69.67;101149.38;4991938;28;19918;-81
2022/11/15 00:09:32;;;;;;;;;;;;;;;11.34;69.48;101145.41;4991888;28;19922;-81
2022/11/15 00:12:35;;;;;;;;;;;;;;;11.20;70.58;101144.69;4991386;28;19918;-82
2022/11/15 00:15:40;;;;;;;;;;;;;;;11.34;70.97;101145.41;4987562;28;19918;-80
2022/11/15 00:18:43;;;;;;;;;;;;;;;11.29;70.43;101140.09;4991568;28;19918;-81
2022/11/15 00:21:46;;;;;;;;;;;;;;;11.33;71.45;101137.56;5066617;23;19924;-78
2022/11/15 00:24:50;;;;;;;;;;;;;;;11.35;69.39;101127.97;5056061;28;19928;-78
2022/11/15 00:27:57;;;;;;;;;;;;;;;11.20;68.91;101122.09;5055056;28;19917;-78
2022/11/15 00:31:04;;;;;;;;;;;;;;;11.49;70.70;101138.78;5053969;28;19917;-77
2022/11/15 00:34:08;;;;;;;;;;;;;;;11.57;70.02;101138.06;5057627;28;19917;-78
2022/11/15 00:37:11;;;;;;;;;;;;;;;11.52;67.78;101139.00;5053761;28;19917;-78
2022/11/15 00:40:15;;;;;;;;;;;;;;;11.20;66.97;101139.22;5054845;28;19921;-78
2022/11/15 00:43:18;;;;;;;;;;;;;;;11.16;67.58;101138.25;5054763;28;19917;-77
2022/11/15 00:46:21;;;;;;;;;;;;;;;11.22;69.38;101136.22;5056234;28;19917;-79
2022/11/15 00:49:25;;;;;;;;;;;;;;;11.17;68.40;101137.13;5055025;28;19916;-78
2022/11/15 00:52:28;;;;;;;;;;;;;;;11.42;67.50;101136.53;5055087;28;19917;-77
2022/11/15 00:55:31;;;;;;;;;;;;;;;11.31;66.29;101129.72;5060377;28;19916;-78
2022/11/15 00:58:34;;;;;;;;;;;;;;;11.34;68.35;101133.72;5076028;28;19917;-79
2022/11/15 01:01:38;;;;;;;;;;;;;;;11.23;67.17;101133.16;5075196;28;19920;-78
2022/11/15 01:04:41;;;;;;;;;;;;;;;11.42;69.62;101124.81;5074255;28;19916;-78
2022/11/15 01:07:44;;;;;;;;;;;;;;;11.41;71.46;101123.22;5064050;28;19916;-78
2022/11/15 01:10:48;;;;;;;;;;;;;;;11.44;72.37;101125.28;5073574;28;20315;-78
2022/11/15 01:13:51;;;;;;;;;;;;;;;11.34;72.48;101122.84;5075312;28;19920;-79
2022/11/15 01:16:54;;;;;;;;;;;;;;;11.26;72.70;101112.69;5071589;28;19916;-78
2022/11/15 01:19:57;;;;;;;;;;;;;;;11.19;73.42;101110.41;5075054;28;19916;-78
2022/11/15 01:23:01;;;;;;;;;;;;;;;11.20;72.96;101116.66;5074028;28;20385;-77
2022/11/15 01:26:07;;;;;;;;;;;;;;;11.36;73.78;101115.97;5074558;28;19935;-76
2022/11/15 01:29:10;;;;;;;;;;;;;;;11.35;71.25;101105.38;5054659;28;20020;-77
2022/11/15 01:32:13;;;;;;;;;;;;;;;11.17;72.32;101111.84;5054332;28;19917;-79
2022/11/15 01:35:16;;;;;;;;;;;;;;;11.18;72.21;101102.53;5053925;28;20380;-77
2022/11/15 01:38:20;;;;;;;;;;;;;;;11.20;72.91;101090.25;5057389;28;19924;-78
2022/11/15 01:41:27;;;;;;;;;;;;;;;11.26;71.69;101099.09;5073610;28;19921;-77
2022/11/15 01:44:30;;;;;;;;;;;;;;;11.23;70.04;101099.69;5072196;28;19917;-77
2022/11/15 01:47:37;;;;;;;;;;;;;;;11.45;70.79;101091.50;5071286;28;20279;-80
2022/11/15 01:50:40;;;;;;;;;;;;;;;11.37;69.97;101089.56;5054127;28;19917;-78
2022/11/15 01:53:45;;;;;;;;;;;;;;;11.28;68.92;101088.66;5053401;28;20380;-77
2022/11/15 01:56:51;;;;;;;;;;;;;;;11.27;70.47;101089.81;5053343;28;19917;-78
2022/11/15 01:59:55;;;;;;;;;;;;;;;11.28;70.93;101083.22;5063195;28;19931;-78
2022/11/15 02:02:59;;;;;;;;;;;;;;;11.53;71.85;101077.94;5073472;28;19921;-78
2022/11/15 02:06:04;;;;;;;;;;;;;;;11.30;71.04;101081.00;5073538;28;20295;-78
2022/11/15 02:09:07;;;;;;;;;;;;;;;11.22;71.37;101079.84;5071759;28;19917;-78
2022/11/15 02:12:13;;;;;;;;;;;;;;;11.12;72.29;101070.00;5036339;28;20372;-78
2022/11/15 02:15:17;;;;;;;;;;;;;;;11.16;72.50;101062.03;5033919;28;20392;-78
2022/11/15 02:18:34;;;;;;;;;;;;;;;11.12;73.01;101055.63;5034238;28;19921;-77
2022/11/15 02:21:38;;;;;;;;;;;;;;;11.15;73.10;101055.78;5065848;28;19928;-78
2022/11/15 02:25:00;;;;;;;;;;;;;;;11.07;72.82;101047.56;5072996;28;19916;-78
2022/11/15 02:28:16;;;;;;;;;;;;;;;10.99;72.28;101040.13;5075755;28;19916;-78
2022/11/15 02:31:31;;;;;;;;;;;;;;;10.92;70.89;101043.28;5078636;28;19921;-80
2022/11/15 02:34:43;;;;;;;;;;;;;;;11.06;72.34;101052.22;5077686;28;20295;-77
2022/11/15 02:37:49;;;;;;;;;;;;;;;11.26;71.26;101040.00;5074557;28;19924;-78
2022/11/15 02:41:02;;;;;;;;;;;;;;;11.09;69.73;101043.41;5077091;28;19920;-77
2022/11/15 02:44:19;;;;;;;;;;;;;;;11.01;72.14;101046.91;5074719;28;19916;-78
2022/11/15 02:47:24;;;;;;;;;;;;;;;11.08;72.76;101044.53;5076261;28;19916;-78
2022/11/15 02:50:29;;;;;;;;;;;;;;;11.12;72.05;101045.50;5077093;28;19917;-78
2022/11/15 02:53:32;;;;;;;;;;;;;;;11.11;72.58;101049.34;5075265;28;19916;-78
2022/11/15 02:56:36;;;;;;;;;;;;;;;11.06;72.90;101049.50;5075813;28;19916;-79
2022/11/15 03:00:00;;;;;;;;;;;;;;;10.99;72.60;101046.38;5076855;28;19920;-78
2022/11/15 03:03:24;;;;;;;;;;;;;;;11.07;73.10;101045.63;5076790;28;19920;-78
2022/11/15 03:06:42;;;;;;;;;;;;;;;11.23;73.66;101040.59;5062981;28;19917;-78
2022/11/15 03:09:45;;;;;;;;;;;;;;;11.17;70.17;101041.06;5056127;28;19917;-79
2022/11/15 03:12:51;;;;;;;;;;;;;;;11.09;69.89;101040.69;5055594;28;19917;-77
2022/11/15 03:16:03;;;;;;;;;;;;;;;11.08;70.41;101044.53;5061882;28;19916;-78
2022/11/15 03:19:25;;;;;;;;;;;;;;;11.14;70.18;101029.69;5076746;28;20315;-79
2022/11/15 03:22:30;;;;;;;;;;;;;;;10.97;71.57;101032.28;5075148;28;19921;-78
2022/11/15 03:25:35;;;;;;;;;;;;;;;10.93;72.13;101034.00;5074865;28;19916;-79
2022/11/15 03:28:42;;;;;;;;;;;;;;;10.87;72.11;101035.25;5076694;28;19916;-78
2022/11/15 03:31:50;;;;;;;;;;;;;;;10.80;72.65;101029.44;5076671;28;19916;-78
2022/11/15 03:35:06;;;;;;;;;;;;;;;10.79;72.91;101033.28;5076161;28;19917;-79
2022/11/15 03:38:24;;;;;;;;;;;;;;;10.74;72.86;101033.41;5059081;28;19921;-78
2022/11/15 03:41:31;;;;;;;;;;;;;;;10.71;73.75;101036.75;5055698;28;19920;-78
2022/11/15 03:45:00;;;;;;;;;;;;;;;10.64;73.69;101034.44;5056917;28;19999;-78
2022/11/15 03:48:12;;;;;;;;;;;;;;;10.60;73.16;101029.94;5062446;28;20331;-78
2022/11/15 03:51:16;;;;;;;;;;;;;;;10.64;72.85;101020.03;5056092;28;19917;-78
2022/11/15 03:54:19;;;;;;;;;;;;;;;10.61;72.66;101016.03;5056004;28;19920;-78
2022/11/15 03:57:23;;;;;;;;;;;;;;;10.62;72.67;101004.03;5059273;28;19924;-77
2022/11/15 04:00:27;;;;;;;;;;;;;;;10.60;72.95;101016.34;5076725;28;20368;-77
2022/11/15 04:03:30;;;;;;;;;;;;;;;10.66;73.08;101020.53;5076575;28;19920;-77
2022/11/15 04:06:33;;;;;;;;;;;;;;;10.59;71.73;101018.25;5075516;28;19917;-78
2022/11/15 04:13:01;;;;;;;;;;;;;;;10.66;71.55;101020.53;5053719;28;19983;-77
2022/11/15 04:16:05;;;;;;;;;;;;;;;10.61;71.81;101017.94;5056742;28;19916;-78
2022/11/15 04:25:54;;;;;;;;;;;;;;;10.63;71.37;100997.47;5046869;28;19916;-79
2022/11/15 04:32:20;;;;;;;;;;;;;;;10.74;70.08;100987.16;5044431;28;19916;-77
2022/11/15 04:35:23;;;;;;;;;;;;;;;10.77;68.71;100978.38;5051708;28;19917;-78
2022/11/15 04:38:26;;;;;;;;;;;;;;;10.69;68.46;100992.72;5048361;28;20384;-79
2022/11/15 04:41:30;;;;;;;;;;;;;;;10.57;69.35;101000.63;5055028;28;19924;-79
2022/11/15 04:44:33;;;;;;;;;;;;;;;10.46;68.64;100993.81;5059451;28;20376;-79
2022/11/15 04:47:37;;;;;;;;;;;;;;;10.41;68.15;100991.22;5075560;28;19916;-79
2022/11/15 04:50:40;;;;;;;;;;;;;;;10.38;69.68;100986.38;5061885;28;19921;-79
2022/11/15 04:53:44;;;;;;;;;;;;;;;10.50;68.43;100981.22;5035386;28;19917;-79
2022/11/15 04:56:47;;;;;;;;;;;;;;;10.50;68.89;100981.22;5035612;28;19917;-79
2022/11/15 04:59:51;;;;;;;;;;;;;;;10.53;67.77;100972.44;5048280;28;19917;-77
2022/11/15 05:06:16;;;;;;;;;;;;;;;10.39;66.83;100977.13;5034740;28;19917;-78
2022/11/15 05:09:19;;;;;;;;;;;;;;;10.26;67.63;100970.59;5040681;28;19920;-78
2022/11/15 05:12:23;;;;;;;;;;;;;;;10.22;68.17;100967.72;5058818;28;19917;-77
2022/11/15 05:15:26;;;;;;;;;;;;;;;10.34;67.05;100974.53;5051875;28;19917;-77
2022/11/15 05:18:30;;;;;;;;;;;;;;;10.31;66.68;100977.88;5048405;28;19917;-77
2022/11/15 05:21:35;;;;;;;;;;;;;;;10.07;66.93;100968.03;5050610;28;19921;-78
2022/11/15 05:24:39;;;;;;;;;;;;;;;10.12;68.41;100970.63;5053943;28;19939;-77
2022/11/15 05:27:42;;;;;;;;;;;;;;;10.14;68.27;100970.31;5037960;28;19921;-79
2022/11/15 05:30:46;;;;;;;;;;;;;;;10.18;67.25;100971.34;5036138;28;19925;-79
2022/11/15 05:33:51;;;;;;;;;;;;;;;10.13;70.34;100968.72;5051749;28;19917;-78
2022/11/15 05:36:54;;;;;;;;;;;;;;;10.16;68.30;100990.66;5056427;28;19916;-79
2022/11/15 05:39:58;;;;;;;;;;;;;;;10.11;67.60;100998.91;5060950;28;19916;-77
2022/11/15 05:43:03;;;;;;;;;;;;;;;9.97;67.36;100998.13;5054744;28;19921;-78
2022/11/15 05:46:07;;;;;;;;;;;;;;;9.91;67.82;100999.34;5054068;28;19916;-78
2022/11/15 05:49:12;;;;;;;;;;;;;;;9.26;68.60;100998.72;5054617;28;19921;-76
2022/11/15 05:52:17;;;;;;;;;;;;;;;9.58;76.41;100998.66;5032632;28;19917;-78
2022/11/15 05:55:20;;;;;;;;;;;;;;;9.62;71.48;101001.56;5040985;28;19921;-76
2022/11/15 05:58:23;;;;;;;;;;;;;;;9.30;70.39;100988.88;5036547;28;20376;-76
2022/11/15 06:01:27;;;;;;;;;;;;;;;11.02;83.32;101001.44;5059485;28;19920;-78
2022/11/15 06:04:31;;;;;;;;;;;;;;;9.80;70.35;100992.53;5068168;28;19920;-77
2022/11/15 06:07:34;;;;;;;;;;;;;;;9.62;68.56;100986.09;5052697;28;20287;-76
2022/11/15 06:10:37;;;;;;;;;;;;;;;9.66;68.57;100986.28;5051374;28;20388;-76
2022/11/15 06:13:40;;;;;;;;;;;;;;;9.39;67.77;100981.66;5054917;28;19921;-78
2022/11/15 06:16:44;;;;;;;;;;;;;;;8.73;70.13;100988.25;5062126;28;19917;-77
2022/11/15 06:19:47;;;;;;;;;;;;;;;8.36;73.52;100991.00;5055064;28;19917;-77
2022/11/15 06:22:51;;;;;;;;;;;;;;;8.78;71.38;100998.22;5069908;22;19926;-77
2022/11/15 06:25:57;;;;;;;;;;;;;;;8.44;72.76;101003.88;4992680;28;19921;-78
2022/11/15 06:29:02;;;;;;;;;;;;;;;9.36;78.02;101003.97;4986169;28;20381;-77
2022/11/15 06:32:05;;;;;;;;;;;;;;;10.25;76.18;101007.88;4974002;28;19918;-79
2022/11/15 06:35:09;;;;;;;;;;;;;;;10.81;75.51;101001.13;5039867;28;19917;-77
2022/11/15 06:38:12;;;;;;;;;;;;;;;11.62;78.04;101009.91;4991926;28;20293;-76
2022/11/15 06:41:16;;;;;;;;;;;;;;;11.85;70.51;101013.34;4989011;28;19922;-76
2022/11/15 06:44:20;;;;;;;;;;;;;;;11.57;67.87;101013.56;4972840;28;19922;-77
2022/11/15 06:47:23;;;;;;;;;;;;;;;11.13;69.27;101028.06;4973175;28;19918;-77
2022/11/15 06:50:26;;;;;;;;;;;;;;;11.34;68.35;101019.38;4973071;28;19918;-76
2022/11/15 06:53:30;;;;;;;;;;;;;;;11.25;66.56;101027.50;4972494;28;19918;-78
2022/11/15 06:56:33;;;;;;;;;;;;;;;10.90;66.91;101025.69;4986438;28;19917;-77
2022/11/15 06:59:36;;;;;;;;;;;;;;;11.32;69.70;101035.22;4986610;28;19918;-77
2022/11/15 07:02:39;;;;;;;;;;;;;;;10.60;68.02;101036.19;4991762;28;19922;-77
2022/11/15 07:05:50;;;;;;;;;;;;;;;10.98;68.54;101038.53;4992556;28;19918;-78
2022/11/15 07:08:53;;;;;;;;;;;;;;;10.80;67.91;101031.38;4991510;28;20372;-77
2022/11/15 07:11:56;;;;;;;;;;;;;;;11.07;69.27;101036.69;4992105;28;19918;-77
2022/11/15 07:15:00;;;;;;;;;;;;;;;11.34;69.51;101032.97;4989413;28;19918;-79
2022/11/15 07:18:03;;;;;;;;;;;;;;;11.64;68.84;101037.63;4989361;28;19918;-76
2022/11/15 07:21:08;;;;;;;;;;;;;;;10.88;66.93;101034.13;4990695;28;19925;-77
2022/11/15 07:24:11;;;;;;;;;;;;;;;11.86;76.41;101036.78;4990148;28;20289;-77
2022/11/15 07:27:15;;;;;;;;;;;;;;;11.31;65.96;101037.16;4984123;28;19917;-77
2022/11/15 07:30:18;;;;;;;;;;;;;;;12.27;78.63;101052.75;4984915;28;20296;-77
2022/11/15 07:33:21;;;;;;;;;;;;;;;12.03;65.00;101046.94;4991268;28;19921;-77
2022/11/15 07:36:24;;;;;;;;;;;;;;;12.15;65.27;101047.09;4985361;28;19918;-77
2022/11/15 07:39:28;;;;;;;;;;;;;;;11.33;65.85;101051.22;4991939;28;19921;-77
2022/11/15 07:45:53;;;;;;;;;;;;;;;10.96;70.59;101055.19;4991684;28;19918;-76
2022/11/15 07:48:57;;;;;;;;;;;;;;;10.78;69.71;101056.16;4991519;28;19917;-77
2022/11/15 07:52:00;;;;;;;;;;;;;;;10.59;70.29;101059.03;4991687;28;19922;-77
2022/11/15 07:55:03;;;;;;;;;;;;;;;10.51;70.49;101057.06;4990586;28;19918;-77
2022/11/15 07:58:09;;;;;;;;;;;;;;;10.57;70.08;101055.81;4991474;28;19917;-77
2022/11/15 08:01:13;;;;;;;;;;;;;;;10.23;70.51;101050.84;4991547;28;19922;-78
2022/11/15 08:04:16;;;;;;;;;;;;;;;10.51;70.91;101045.38;4991418;28;19918;-77
2022/11/15 08:07:19;;;;;;;;;;;;;;;10.19;70.98;101049.88;4991374;28;19922;-77
2022/11/15 08:10:23;;;;;;;;;;;;;;;10.80;70.41;101034.88;4985050;28;20377;-77
2022/11/15 08:13:26;;;;;;;;;;;;;;;10.88;71.62;101033.34;4993760;28;19918;-82
2022/11/15 08:16:30;;;;;;;;;;;;;;;10.87;68.09;101037.19;4992781;28;19918;-87
2022/11/15 08:19:33;;;;;;;;;;;;;;;10.75;68.78;101040.44;4986386;28;19917;-81
2022/11/15 08:22:36;;;;;;;;;;;;;;;10.56;69.02;101037.09;4989841;28;20385;-80
2022/11/15 08:25:40;;;;;;;;;;;;;;;10.63;68.14;101042.91;4983740;28;19926;-81
2022/11/15 08:28:44;;;;;;;;;;;;;;;10.59;68.61;101039.19;4991694;28;19918;-81
2022/11/15 08:31:48;;;;;;;;;;;;;;;10.57;68.89;101042.22;4991391;28;19930;-82
2022/11/15 08:34:51;;;;;;;;;;;;;;;10.42;69.28;101041.75;4992357;28;19918;-84
2022/11/15 08:37:54;;;;;;;;;;;;;;;10.34;69.31;101039.75;4992175;28;20284;-81
2022/11/15 08:41:03;;;;;;;;;;;;;;;10.43;69.64;101032.50;4992391;28;19918;-83
2022/11/15 08:44:06;;;;;;;;;;;;;;;10.31;69.27;101032.22;4991688;28;19918;-83
2022/11/15 08:47:13;;;;;;;;;;;;;;;10.35;70.01;101033.22;4993146;28;19918;-83
2022/11/15 08:50:16;;;;;;;;;;;;;;;10.27;70.59;101029.31;4991827;28;19918;-82
2022/11/15 08:53:19;;;;;;;;;;;;;;;10.24;70.69;101036.16;4990875;28;19922;-83
2022/11/15 08:56:23;;;;;;;;;;;;;;;10.31;71.02;101034.94;4991492;28;19918;-82
2022/11/15 08:59:26;;;;;;;;;;;;;;;10.65;72.26;101037.97;4991400;28;19918;-83
2022/11/15 09:02:32;;;;;;;;;;;;;;;10.24;71.97;101036.16;4990723;28;19926;-85
2022/11/15 09:05:37;;;;;;;;;;;;;;;10.16;72.04;101034.16;4991264;28;19918;-83
2022/11/15 09:08:41;;;;;;;;;;;;;;;10.22;72.12;101038.38;4977282;28;19918;-82
2022/11/15 09:11:44;;;;;;;;;;;;;;;10.20;72.23;101027.00;4990611;28;19918;-84
2022/11/15 09:14:47;;;;;;;;;;;;;;;10.14;72.94;101035.53;4990750;28;19918;-83
2022/11/15 09:17:50;;;;;;;;;;;;;;;10.11;72.75;101036.94;4991204;28;19917;-83
2022/11/15 09:20:57;;;;;;;;;;;;;;;10.04;73.48;101030.31;4990839;28;19918;-82
2022/11/15 09:24:02;;;;;;;;;;;;;;;10.13;74.11;101042.09;4990552;28;20385;-83
2022/11/15 09:27:05;;;;;;;;;;;;;;;10.20;73.57;101040.59;4990696;28;19918;-82
2022/11/15 09:30:08;;;;;;;;;;;;;;;10.22;73.55;101043.81;4990835;28;19918;-83
2022/11/15 09:33:12;;;;;;;;;;;;;;;10.22;73.77;101032.94;4990643;28;19917;-82
2022/11/15 09:36:16;;;;;;;;;;;;;;;10.27;73.42;101037.44;4990889;28;20328;-83
2022/11/15 09:39:19;;;;;;;;;;;;;;;10.23;73.58;101033.75;4990864;28;19921;-82
2022/11/15 09:42:48;;;;;;;;;;;;;;;10.26;73.15;101022.25;4990154;28;19941;-82
2022/11/15 09:45:52;;;;;;;;;;;;;;;10.25;73.42;101021.47;4990569;28;19918;-82
2022/11/15 09:49:02;;;;;;;;;;;;;;;10.26;73.70;101023.06;4990734;28;19917;-82
2022/11/15 09:51:56;;;;;;;;;;;;;;;10.28;73.84;101023.56;4996857;28;19918;-82
2022/11/15 09:54:43;;;;;;;;;;;;;;;10.27;74.04;101024.66;5062280;28;20380;-82
2022/11/15 09:57:33;;;;;;;;;;;;;;;10.27;74.04;101021.94;4990315;28;19917;-82
2022/11/15 10:00:17;;;;;;;;;;;;;;;10.25;74.75;101016.03;5064083;28;19918;-82
2022/11/15 10:03:11;;;;;;;;;;;;;;;10.12;74.74;101008.66;5006652;28;19922;-83
2022/11/15 10:06:00;;;;;;;;;;;;;;;9.90;75.97;101003.19;5065536;28;20381;-82
2022/11/15 10:08:49;;;;;;;;;;;;;;;9.92;76.22;101000.13;5005450;28;19918;-82
2022/11/15 10:11:35;;;;;;;;;;;;;;;9.88;76.20;100995.31;4994748;28;19917;-82
2022/11/15 10:14:21;;;;;;;;;;;;;;;9.95;76.93;100983.25;4989446;28;20397;-82
2022/11/15 10:17:20;;;;;;;;;;;;;;;10.04;76.95;100984.94;5068125;28;19925;-83
2022/11/15 10:20:09;;;;;;;;;;;;;;;10.05;76.39;100981.13;4990283;28;19918;-82
2022/11/15 10:22:56;;;;;;;;;;;;;;;9.92;76.57;100984.66;5065450;28;19921;-81
2022/11/15 10:25:41;;;;;;;;;;;;;;;10.07;76.47;100976.16;4990217;28;20300;-82
2022/11/15 10:28:29;;;;;;;;;;;;;;;10.12;76.28;100976.06;5008164;28;19918;-82
2022/11/15 10:31:27;;;;;;;;;;;;;;;10.26;76.57;100976.84;5075754;28;19916;-82
2022/11/15 10:34:13;;;;;;;;;;;;;;;10.34;76.39;100975.34;5106256;28;19916;-83
2022/11/15 10:36:59;;;;;;;;;;;;;;;10.27;76.62;100948.56;5092222;28;19916;-82
2022/11/15 10:39:43;;;;;;;;;;;;;;;10.20;76.33;100947.41;5092276;28;19916;-81
2022/11/15 10:42:29;;;;;;;;;;;;;;;10.23;76.95;100941.34;5092173;28;19920;-82
2022/11/15 10:45:30;;;;;;;;;;;;;;;10.33;76.82;100946.53;5101399;28;19916;-82
2022/11/15 10:48:14;;;;;;;;;;;;;;;10.37;76.60;100944.00;5101685;28;19916;-82
2022/11/15 10:50:58;;;;;;;;;;;;;;;10.34;76.29;100939.19;5109886;28;19916;-82
2022/11/15 10:53:44;;;;;;;;;;;;;;;10.34;76.73;100931.03;5111001;28;20379;-82
2022/11/15 10:56:29;;;;;;;;;;;;;;;10.24;76.92;100941.03;5101585;28;19927;-83
2022/11/15 10:59:16;;;;;;;;;;;;;;;10.28;77.62;100928.44;5101404;28;19916;-83
2022/11/15 11:02:00;;;;;;;;;;;;;;;10.28;77.96;100925.72;5095418;28;19920;-81
2022/11/15 11:04:49;;;;;;;;;;;;;;;10.30;78.14;100925.41;5097579;28;19916;-82
2022/11/15 11:07:35;;;;;;;;;;;;;;;10.33;77.45;100918.56;5095651;28;19916;-82
2022/11/15 11:10:20;;;;;;;;;;;;;;;10.34;77.61;100910.09;5084673;28;19922;-81
2022/11/15 11:13:15;;;;;;;;;;;;;;;10.43;76.92;100904.72;5030377;28;19921;-82
2022/11/15 11:16:08;;;;;;;;;;;;;;;10.70;76.85;100901.88;5009020;28;20307;-84
2022/11/15 11:19:04;;;;;;;;;;;;;;;10.69;76.50;100900.25;4999273;28;20486;-82
2022/11/15 11:22:01;;;;;;;;;;;;;;;10.68;76.50;100898.63;4992138;28;19921;-81
2022/11/15 11:25:04;;;;;;;;;;;;;;;10.67;76.27;100888.88;4997528;28;19918;-82
2022/11/15 11:27:49;;;;;;;;;;;;;;;10.65;76.80;100891.13;5009922;28;20533;-84
2022/11/15 11:30:53;;;;;;;;;;;;;;;10.62;76.65;100889.00;5013514;28;19917;-85
2022/11/15 11:34:04;;;;;;;;;;;;;;;10.62;76.75;100886.28;5012196;28;19918;-85
2022/11/15 11:36:53;;;;;;;;;;;;;;;10.60;77.17;100878.44;5063689;28;19918;-84
2022/11/15 11:39:51;;;;;;;;;;;;;;;10.64;77.12;100878.63;5000817;28;19917;-85
2022/11/15 11:42:44;;;;;;;;;;;;;;;10.68;77.19;100866.00;4997947;28;19921;-84
2022/11/15 11:45:50;;;;;;;;;;;;;;;10.61;77.19;100871.91;4998999;28;19918;-83
2022/11/15 11:48:41;;;;;;;;;;;;;;;10.61;77.48;100865.66;4995323;28;19918;-83
2022/11/15 11:51:34;;;;;;;;;;;;;;;10.67;77.58;100859.75;4998144;28;19918;-84
2022/11/15 11:54:18;;;;;;;;;;;;;;;10.77;77.85;100863.34;4985634;28;19918;-84
2022/11/15 11:57:06;;;;;;;;;;;;;;;10.79;77.28;100853.75;4980128;28;19917;-84
2022/11/15 11:59:55;;;;;;;;;;;;;;;10.83;77.45;100849.28;4992249;28;19918;-84
2022/11/15 12:02:58;;;;;;;;;;;;;;;10.87;78.08;100847.53;4995879;28;19925;-83
2022/11/15 12:05:45;;;;;;;;;;;;;;;10.99;77.72;100845.03;4997685;28;20369;-84
2022/11/15 12:08:48;;;;;;;;;;;;;;;11.04;77.38;100835.91;5011592;28;19922;-84
2022/11/15 12:11:36;;;;;;;;;;;;;;;11.03;77.83;100835.13;4993799;28;19917;-84
2022/11/15 12:14:26;;;;;;;;;;;;;;;11.06;77.26;100833.69;4998019;28;19918;-84
2022/11/15 12:17:11;;;;;;;;;;;;;;;11.03;77.02;100829.66;4991721;28;19918;-84
2022/11/15 12:19:57;;;;;;;;;;;;;;;11.08;77.44;100821.34;5005965;28;19918;-84
2022/11/15 12:22:49;;;;;;;;;;;;;;;11.04;76.97;100825.03;5002550;28;19922;-82
2022/11/15 12:25:41;;;;;;;;;;;;;;;11.06;77.33;100822.81;5005105;28;19918;-82
2022/11/15 12:28:35;;;;;;;;;;;;;;;11.17;77.41;100812.44;4990627;28;19917;-82
2022/11/15 12:31:19;;;;;;;;;;;;;;;11.11;76.85;100812.59;4995727;28;19922;-82
2022/11/15 12:34:13;;;;;;;;;;;;;;;11.12;76.39;100806.00;5005270;28;19918;-83
2022/11/15 12:36:58;;;;;;;;;;;;;;;10.99;77.06;100803.41;4992071;28;19917;-83
2022/11/15 12:40:01;;;;;;;;;;;;;;;10.99;77.15;100795.25;4991506;28;19917;-84
2022/11/15 12:43:05;;;;;;;;;;;;;;;11.05;76.86;100791.28;4992104;28;19921;-82
2022/11/15 12:45:49;;;;;;;;;;;;;;;10.99;77.30;100790.59;4991083;28;19922;-83
2022/11/15 12:48:34;;;;;;;;;;;;;;;11.05;77.80;100783.91;4994458;28;19918;-83
2022/11/15 12:51:22;;;;;;;;;;;;;;;11.11;77.08;100781.84;5006478;28;19918;-83
2022/11/15 12:54:22;;;;;;;;;;;;;;;10.99;77.59;100779.72;5003639;28;20381;-83
2022/11/15 12:57:06;;;;;;;;;;;;;;;11.02;78.62;100778.31;4991327;28;20368;-83
2022/11/15 12:59:55;;;;;;;;;;;;;;;11.12;79.37;100781.50;5005761;28;19918;-83
2022/11/15 13:02:45;;;;;;;;;;;;;;;11.05;78.51;100767.59;4978722;28;19929;-81
2022/11/15 13:05:30;;;;;;;;;;;;;;;10.98;78.42;100761.78;4998679;28;19922;-82
2022/11/15 13:08:34;;;;;;;;;;;;;;;11.07;78.94;100756.38;4989442;28;19918;-82
2022/11/15 13:11:37;;;;;;;;;;;;;;;11.13;78.58;100760.53;4987085;28;19918;-83
2022/11/15 13:14:39;;;;;;;;;;;;;;;11.07;78.49;100757.16;4981826;28;19918;-83
2022/11/15 13:17:26;;;;;;;;;;;;;;;11.09;78.46;100757.66;4991208;28;19963;-82
2022/11/15 13:20:11;;;;;;;;;;;;;;;11.18;78.44;100752.22;4993422;28;19918;-82
2022/11/15 13:23:07;;;;;;;;;;;;;;;11.18;78.93;100743.25;5001895;28;19922;-83
2022/11/15 13:26:07;;;;;;;;;;;;;;;11.19;78.81;100734.78;4995760;28;19918;-82
2022/11/15 13:28:54;;;;;;;;;;;;;;;11.21;79.01;100724.38;4990152;28;19918;-83
2022/11/15 13:31:43;;;;;;;;;;;;;;;11.19;78.36;100729.34;4994855;28;19929;-83
2022/11/15 13:34:35;;;;;;;;;;;;;;;11.14;78.86;100721.31;4990362;28;19917;-82
2022/11/15 13:37:20;;;;;;;;;;;;;;;11.19;78.93;100717.63;4997069;28;19922;-82
2022/11/15 13:40:30;;;;;;;;;;;;;;;11.16;78.76;100708.22;4992042;28;20389;-82
2022/11/15 13:43:21;;;;;;;;;;;;;;;11.08;79.30;100709.78;4992474;28;19922;-83
2022/11/15 13:46:20;;;;;;;;;;;;;;;11.31;78.67;100712.38;4996925;28;20289;-83
2022/11/15 13:49:07;;;;;;;;;;;;;;;11.40;78.09;100713.19;4990475;28;19917;-82
2022/11/15 13:51:57;;;;;;;;;;;;;;;11.44;77.81;100714.13;4991034;28;20300;-83
2022/11/15 13:54:48;;;;;;;;;;;;;;;11.46;77.33;100709.97;5008998;28;19918;-81
2022/11/15 13:57:43;;;;;;;;;;;;;;;11.50;77.49;100705.47;4973830;28;20328;-79
2022/11/15 14:00:34;;;;;;;;;;;;;;;11.48;78.12;100706.91;4970958;28;19918;-80
2022/11/15 14:03:20;;;;;;;;;;;;;;;11.38;77.94;100705.31;4986532;28;19922;-80
2022/11/15 14:06:11;;;;;;;;;;;;;;;11.28;79.12;100705.63;4987568;28;20392;-79
2022/11/15 14:09:01;;;;;;;;;;;;;;;11.38;79.14;100708.03;5000796;28;20316;-79
2022/11/15 14:11:50;;;;;;;;;;;;;;;11.38;79.30;100704.50;5061807;28;19960;-80
2022/11/15 14:14:44;;;;;;;;;;;;;;;11.41;79.42;100704.69;4982378;28;19917;-80
2022/11/15 14:17:28;;;;;;;;;;;;;;;11.37;79.24;100695.56;4991673;28;20333;-80
2022/11/15 14:20:20;;;;;;;;;;;;;;;11.30;80.07;100697.16;5010175;28;20303;-80
2022/11/15 14:23:24;;;;;;;;;;;;;;;11.45;79.39;100688.50;5008900;28;19922;-81
2022/11/15 14:26:29;;;;;;;;;;;;;;;11.51;78.51;100689.94;4993439;28;19926;-80
2022/11/15 14:29:27;;;;;;;;;;;;;;;11.47;78.56;100686.28;5006316;28;19917;-80
2022/11/15 14:32:14;;;;;;;;;;;;;;;11.42;78.26;100678.28;4975511;28;19918;-81
2022/11/15 14:34:59;;;;;;;;;;;;;;;11.38;77.82;100669.13;5004865;28;19918;-82
2022/11/15 14:37:46;;;;;;;;;;;;;;;11.20;79.17;100675.69;5010200;28;19918;-82
2022/11/15 14:40:31;;;;;;;;;;;;;;;11.12;78.56;100683.53;4997261;28;19917;-81
2022/11/15 14:43:15;;;;;;;;;;;;;;;11.08;78.87;100674.41;4981144;28;20400;-83
2022/11/15 14:46:00;;;;;;;;;;;;;;;11.13;79.47;100670.72;5006265;28;19922;-82
2022/11/15 14:48:45;;;;;;;;;;;;;;;11.11;79.72;100667.53;5010605;28;19918;-82
2022/11/15 14:51:32;;;;;;;;;;;;;;;11.62;81.97;100674.09;4989915;28;19922;-82
2022/11/15 14:54:17;;;;;;;;;;;;;;;11.54;79.01;100667.50;4991511;28;19918;-82
2022/11/15 14:57:01;;;;;;;;;;;;;;;11.70;78.02;100671.34;5003227;28;19918;-81
2022/11/15 14:59:46;;;;;;;;;;;;;;;11.73;77.56;100668.00;4989233;28;19918;-82
2022/11/15 15:02:30;;;;;;;;;;;;;;;11.77;77.40;100663.50;4981477;28;19922;-82
2022/11/15 15:05:16;;;;;;;;;;;;;;;11.81;76.94;100664.44;4999052;28;19918;-81
2022/11/15 15:08:01;;;;;;;;;;;;;;;11.72;77.35;100658.19;5009351;28;19918;-81
2022/11/15 15:10:45;;;;;;;;;;;;;;;11.70;77.65;100659.63;4978927;28;19918;-81
2022/11/15 15:13:30;;;;;;;;;;;;;;;11.53;78.97;100658.53;4975887;28;19922;-82
2022/11/15 15:16:15;;;;;;;;;;;;;;;11.46;78.86;100655.53;4998139;28;19918;-81
2022/11/15 15:18:59;;;;;;;;;;;;;;;11.37;79.49;100653.94;4992586;28;19918;-83
2022/11/15 15:21:43;;;;;;;;;;;;;;;11.46;79.37;100649.28;4980709;28;19919;-82
2022/11/15 15:24:28;;;;;;;;;;;;;;;11.44;78.88;100651.50;4971966;28;19922;-83
2022/11/15 15:27:12;;;;;;;;;;;;;;;11.57;78.90;100653.25;4978341;28;19918;-83
2022/11/15 15:29:57;;;;;;;;;;;;;;;11.68;78.28;100649.09;4986665;28;19918;-81
2022/11/15 15:32:42;;;;;;;;;;;;;;;11.76;77.95;100655.66;4987245;28;19917;-81
2022/11/15 15:35:31;;;;;;;;;;;;;;;11.80;77.87;100651.94;4984429;28;19917;-82
2022/11/15 15:38:16;;;;;;;;;;;;;;;11.80;77.74;100651.94;4991779;28;19918;-80
2022/11/15 15:41:02;;;;;;;;;;;;;;;11.81;77.79;100639.94;4995790;28;19922;-80